sensor_id;sensor_type;location;lat;lon;timestamp;temperature;humidity
35425;DHT22;21537;48.226;16.400;2022-07-26T00:01:44;25.70;99.90
35425;DHT22;21537;48.226;16.400;2022-07-26T00:04:10;25.70;99.90
35425;DHT22;21537;48.226;16.400;2022-07-26T00:06:37;25.70;99.90
35425;DHT22;21537;48.226;16.400;2022-07-26T00:09:03;25.70;99.90
35425;DHT22;21537;48.226;16.400;2022-07-26T00:11:29;25.60;99.90
35425;DHT22;21537;48.226;16.400;2022-07-26T00:14:03;25.60;99.90
35425;DHT22;21537;48.226;16.400;2022-07-26T00:16:29;25.60;99.90
35425;DHT22;21537;48.226;16.400;2022-07-26T00:18:55;25.50;99.90
35425;DHT22;21537;48.226;16.400;2022-07-26T00:21:21;25.50;99.90
35425;DHT22;21537;48.226;16.400;2022-07-26T00:23:47;25.50;99.90
35425;DHT22;21537;48.226;16.400;2022-07-26T00:26:13;25.50;99.90
35425;DHT22;21537;48.226;16.400;2022-07-26T00:28:38;25.60;99.90
35425;DHT22;21537;48.226;16.400;2022-07-26T00:31:06;25.60;99.90
35425;DHT22;21537;48.226;16.400;2022-07-26T00:33:32;25.60;99.90
35425;DHT22;21537;48.226;16.400;2022-07-26T00:35:58;25.70;99.90
35425;DHT22;21537;48.226;16.400;2022-07-26T00:38:24;25.60;99.90
35425;DHT22;21537;48.226;16.400;2022-07-26T00:40:50;25.50;99.90
35425;DHT22;21537;48.226;16.400;2022-07-26T00:43:15;25.40;99.90
35425;DHT22;21537;48.226;16.400;2022-07-26T00:45:42;25.40;99.90
35425;DHT22;21537;48.226;16.400;2022-07-26T00:48:07;25.40;99.90
35425;DHT22;21537;48.226;16.400;2022-07-26T00:50:33;25.40;99.90
35425;DHT22;21537;48.226;16.400;2022-07-26T00:52:59;25.40;99.90
35425;DHT22;21537;48.226;16.400;2022-07-26T00:55:26;25.40;99.90
35425;DHT22;21537;48.226;16.400;2022-07-26T00:57:52;25.40;99.90
35425;DHT22;21537;48.226;16.400;2022-07-26T01:00:21;25.40;99.90
35425;DHT22;21537;48.226;16.400;2022-07-26T01:02:48;25.40;99.90
35425;DHT22;21537;48.226;16.400;2022-07-26T01:05:15;25.30;99.90
35425;DHT22;21537;48.226;16.400;2022-07-26T01:07:41;25.30;99.90
35425;DHT22;21537;48.226;16.400;2022-07-26T01:10:10;25.30;99.90
35425;DHT22;21537;48.226;16.400;2022-07-26T01:12:38;25.40;99.90
35425;DHT22;21537;48.226;16.400;2022-07-26T01:15:05;25.60;99.90
35425;DHT22;21537;48.226;16.400;2022-07-26T01:17:31;25.80;99.10
35425;DHT22;21537;48.226;16.400;2022-07-26T01:19:56;26.00;98.60
35425;DHT22;21537;48.226;16.400;2022-07-26T01:22:22;26.10;98.20
35425;DHT22;21537;48.226;16.400;2022-07-26T01:24:48;26.10;97.80
35425;DHT22;21537;48.226;16.400;2022-07-26T01:27:14;26.00;97.90
35425;DHT22;21537;48.226;16.400;2022-07-26T01:29:40;25.90;97.80
35425;DHT22;21537;48.226;16.400;2022-07-26T01:32:07;25.80;98.10
35425;DHT22;21537;48.226;16.400;2022-07-26T01:34:33;25.60;98.70
35425;DHT22;21537;48.226;16.400;2022-07-26T01:36:59;25.30;99.90
35425;DHT22;21537;48.226;16.400;2022-07-26T01:39:25;25.10;99.90
35425;DHT22;21537;48.226;16.400;2022-07-26T01:41:52;24.80;99.90
35425;DHT22;21537;48.226;16.400;2022-07-26T01:44:18;24.60;99.90
35425;DHT22;21537;48.226;16.400;2022-07-26T01:46:44;24.50;99.90
35425;DHT22;21537;48.226;16.400;2022-07-26T01:49:10;24.40;99.90
35425;DHT22;21537;48.226;16.400;2022-07-26T01:51:36;24.30;99.90
35425;DHT22;21537;48.226;16.400;2022-07-26T01:54:01;24.10;99.90
35425;DHT22;21537;48.226;16.400;2022-07-26T01:56:27;24.00;99.90
35425;DHT22;21537;48.226;16.400;2022-07-26T01:58:53;23.90;99.90
35425;DHT22;21537;48.226;16.400;2022-07-26T02:01:19;23.90;99.90
35425;DHT22;21537;48.226;16.400;2022-07-26T02:03:45;23.90;99.90
35425;DHT22;21537;48.226;16.400;2022-07-26T02:06:10;23.90;99.90
35425;DHT22;21537;48.226;16.400;2022-07-26T02:08:36;23.90;99.90
35425;DHT22;21537;48.226;16.400;2022-07-26T02:11:02;24.00;99.90
35425;DHT22;21537;48.226;16.400;2022-07-26T02:13:32;23.90;99.90
35425;DHT22;21537;48.226;16.400;2022-07-26T02:15:59;23.80;99.90
35425;DHT22;21537;48.226;16.400;2022-07-26T02:18:27;23.80;99.90
35425;DHT22;21537;48.226;16.400;2022-07-26T02:20:53;23.80;99.90
35425;DHT22;21537;48.226;16.400;2022-07-26T02:23:20;23.70;99.90
35425;DHT22;21537;48.226;16.400;2022-07-26T02:25:46;23.60;99.90
35425;DHT22;21537;48.226;16.400;2022-07-26T02:28:13;23.50;99.90
35425;DHT22;21537;48.226;16.400;2022-07-26T02:30:40;23.40;99.90
35425;DHT22;21537;48.226;16.400;2022-07-26T02:33:06;23.30;99.90
35425;DHT22;21537;48.226;16.400;2022-07-26T02:35:32;23.10;99.90
35425;DHT22;21537;48.226;16.400;2022-07-26T02:38:08;22.90;99.90
35425;DHT22;21537;48.226;16.400;2022-07-26T02:40:35;22.80;99.90
35425;DHT22;21537;48.226;16.400;2022-07-26T02:43:03;22.70;99.90
35425;DHT22;21537;48.226;16.400;2022-07-26T02:45:29;22.50;99.90
35425;DHT22;21537;48.226;16.400;2022-07-26T02:47:55;22.40;99.90
35425;DHT22;21537;48.226;16.400;2022-07-26T02:50:24;22.40;99.90
35425;DHT22;21537;48.226;16.400;2022-07-26T02:52:51;22.40;99.90
35425;DHT22;21537;48.226;16.400;2022-07-26T02:55:22;22.40;99.90
35425;DHT22;21537;48.226;16.400;2022-07-26T02:57:49;22.30;99.90
35425;DHT22;21537;48.226;16.400;2022-07-26T03:00:17;22.30;99.90
35425;DHT22;21537;48.226;16.400;2022-07-26T03:02:43;22.20;99.90
35425;DHT22;21537;48.226;16.400;2022-07-26T03:05:09;22.20;99.90
35425;DHT22;21537;48.226;16.400;2022-07-26T03:07:35;22.20;99.90
35425;DHT22;21537;48.226;16.400;2022-07-26T03:10:02;22.20;99.90
35425;DHT22;21537;48.226;16.400;2022-07-26T03:12:29;22.10;99.90
35425;DHT22;21537;48.226;16.400;2022-07-26T03:14:55;22.00;99.90
35425;DHT22;21537;48.226;16.400;2022-07-26T03:17:21;21.90;99.90
35425;DHT22;21537;48.226;16.400;2022-07-26T03:19:47;21.80;99.90
35425;DHT22;21537;48.226;16.400;2022-07-26T03:22:13;21.80;99.90
35425;DHT22;21537;48.226;16.400;2022-07-26T03:24:38;21.70;99.90
35425;DHT22;21537;48.226;16.400;2022-07-26T03:27:04;21.70;99.90
35425;DHT22;21537;48.226;16.400;2022-07-26T03:29:30;21.70;99.90
35425;DHT22;21537;48.226;16.400;2022-07-26T03:31:56;21.60;99.90
35425;DHT22;21537;48.226;16.400;2022-07-26T03:34:22;21.60;99.90
35425;DHT22;21537;48.226;16.400;2022-07-26T03:36:48;21.60;99.90
35425;DHT22;21537;48.226;16.400;2022-07-26T03:39:14;21.60;99.90
35425;DHT22;21537;48.226;16.400;2022-07-26T03:41:40;21.70;99.90
35425;DHT22;21537;48.226;16.400;2022-07-26T03:44:06;21.70;99.90
35425;DHT22;21537;48.226;16.400;2022-07-26T03:46:32;21.70;99.90
35425;DHT22;21537;48.226;16.400;2022-07-26T03:48:58;21.70;99.90
35425;DHT22;21537;48.226;16.400;2022-07-26T03:51:24;21.80;99.90
35425;DHT22;21537;48.226;16.400;2022-07-26T03:53:50;21.80;99.90
35425;DHT22;21537;48.226;16.400;2022-07-26T03:56:15;21.70;99.90
35425;DHT22;21537;48.226;16.400;2022-07-26T03:58:58;21.70;99.90
35425;DHT22;21537;48.226;16.400;2022-07-26T04:01:25;21.70;99.90
35425;DHT22;21537;48.226;16.400;2022-07-26T04:03:51;21.70;99.90
35425;DHT22;21537;48.226;16.400;2022-07-26T04:06:17;21.60;99.90
35425;DHT22;21537;48.226;16.400;2022-07-26T04:08:43;21.60;99.90
35425;DHT22;21537;48.226;16.400;2022-07-26T04:11:08;21.60;99.90
35425;DHT22;21537;48.226;16.400;2022-07-26T04:13:34;21.70;99.90
35425;DHT22;21537;48.226;16.400;2022-07-26T04:16:01;21.70;99.90
35425;DHT22;21537;48.226;16.400;2022-07-26T04:18:27;21.70;99.90
35425;DHT22;21537;48.226;16.400;2022-07-26T04:20:53;21.60;99.90
35425;DHT22;21537;48.226;16.400;2022-07-26T04:23:19;21.60;99.90
35425;DHT22;21537;48.226;16.400;2022-07-26T04:25:44;21.70;99.90
35425;DHT22;21537;48.226;16.400;2022-07-26T04:28:11;21.70;99.90
35425;DHT22;21537;48.226;16.400;2022-07-26T04:30:39;21.80;99.90
35425;DHT22;21537;48.226;16.400;2022-07-26T04:33:05;21.90;99.90
35425;DHT22;21537;48.226;16.400;2022-07-26T04:35:31;21.90;99.90
35425;DHT22;21537;48.226;16.400;2022-07-26T04:37:57;21.90;99.90
35425;DHT22;21537;48.226;16.400;2022-07-26T04:40:24;21.80;99.90
35425;DHT22;21537;48.226;16.400;2022-07-26T04:42:52;21.70;99.90
35425;DHT22;21537;48.226;16.400;2022-07-26T04:45:18;21.70;99.90
35425;DHT22;21537;48.226;16.400;2022-07-26T04:47:45;21.60;99.90
35425;DHT22;21537;48.226;16.400;2022-07-26T04:50:13;21.60;99.90
35425;DHT22;21537;48.226;16.400;2022-07-26T04:52:39;21.60;99.90
35425;DHT22;21537;48.226;16.400;2022-07-26T04:55:06;21.60;99.90
35425;DHT22;21537;48.226;16.400;2022-07-26T04:57:32;21.50;99.90
35425;DHT22;21537;48.226;16.400;2022-07-26T04:59:58;21.50;99.90
35425;DHT22;21537;48.226;16.400;2022-07-26T05:02:24;21.40;99.90
35425;DHT22;21537;48.226;16.400;2022-07-26T05:04:50;21.40;99.90
35425;DHT22;21537;48.226;16.400;2022-07-26T05:07:16;21.40;99.90
35425;DHT22;21537;48.226;16.400;2022-07-26T05:09:42;21.40;99.90
35425;DHT22;21537;48.226;16.400;2022-07-26T05:12:08;21.40;99.90
35425;DHT22;21537;48.226;16.400;2022-07-26T05:14:34;21.40;99.90
35425;DHT22;21537;48.226;16.400;2022-07-26T05:17:03;21.30;99.90
35425;DHT22;21537;48.226;16.400;2022-07-26T05:19:28;21.30;99.90
35425;DHT22;21537;48.226;16.400;2022-07-26T05:21:54;21.30;99.90
35425;DHT22;21537;48.226;16.400;2022-07-26T05:24:20;21.20;99.90
35425;DHT22;21537;48.226;16.400;2022-07-26T05:26:46;21.20;99.90
35425;DHT22;21537;48.226;16.400;2022-07-26T05:29:12;21.10;99.90
35425;DHT22;21537;48.226;16.400;2022-07-26T05:31:37;21.10;99.90
35425;DHT22;21537;48.226;16.400;2022-07-26T05:34:03;21.10;99.90
35425;DHT22;21537;48.226;16.400;2022-07-26T05:36:29;21.00;99.90
35425;DHT22;21537;48.226;16.400;2022-07-26T05:38:55;21.00;99.90
35425;DHT22;21537;48.226;16.400;2022-07-26T05:41:21;21.10;99.90
35425;DHT22;21537;48.226;16.400;2022-07-26T05:43:47;21.10;99.90
35425;DHT22;21537;48.226;16.400;2022-07-26T05:46:13;21.20;99.90
35425;DHT22;21537;48.226;16.400;2022-07-26T05:48:41;21.30;99.90
35425;DHT22;21537;48.226;16.400;2022-07-26T05:51:08;21.20;99.90
35425;DHT22;21537;48.226;16.400;2022-07-26T05:53:34;21.20;99.90
35425;DHT22;21537;48.226;16.400;2022-07-26T05:56:00;21.30;99.90
35425;DHT22;21537;48.226;16.400;2022-07-26T05:58:25;21.40;99.90
35425;DHT22;21537;48.226;16.400;2022-07-26T06:00:51;21.40;99.90
35425;DHT22;21537;48.226;16.400;2022-07-26T06:03:17;21.50;99.90
35425;DHT22;21537;48.226;16.400;2022-07-26T06:05:55;21.50;99.90
35425;DHT22;21537;48.226;16.400;2022-07-26T06:08:24;21.60;99.90
35425;DHT22;21537;48.226;16.400;2022-07-26T06:10:51;21.50;99.90
35425;DHT22;21537;48.226;16.400;2022-07-26T06:13:17;21.40;99.90
35425;DHT22;21537;48.226;16.400;2022-07-26T06:15:43;21.40;99.90
35425;DHT22;21537;48.226;16.400;2022-07-26T06:18:10;21.30;99.90
35425;DHT22;21537;48.226;16.400;2022-07-26T06:20:40;21.30;99.90
35425;DHT22;21537;48.226;16.400;2022-07-26T06:23:06;21.30;99.90
35425;DHT22;21537;48.226;16.400;2022-07-26T06:25:32;21.20;99.90
35425;DHT22;21537;48.226;16.400;2022-07-26T06:28:01;21.20;99.90
35425;DHT22;21537;48.226;16.400;2022-07-26T06:30:28;21.20;99.90
35425;DHT22;21537;48.226;16.400;2022-07-26T06:32:54;21.20;99.90
35425;DHT22;21537;48.226;16.400;2022-07-26T06:35:21;21.30;99.90
35425;DHT22;21537;48.226;16.400;2022-07-26T06:37:48;21.30;99.90
35425;DHT22;21537;48.226;16.400;2022-07-26T06:40:14;21.30;99.90
35425;DHT22;21537;48.226;16.400;2022-07-26T06:42:40;21.40;99.90
35425;DHT22;21537;48.226;16.400;2022-07-26T06:45:07;21.50;99.90
35425;DHT22;21537;48.226;16.400;2022-07-26T06:47:32;21.50;99.90
35425;DHT22;21537;48.226;16.400;2022-07-26T06:50:00;21.50;99.90
35425;DHT22;21537;48.226;16.400;2022-07-26T06:52:26;21.60;99.90
35425;DHT22;21537;48.226;16.400;2022-07-26T06:54:52;21.60;99.90
35425;DHT22;21537;48.226;16.400;2022-07-26T06:57:17;21.60;99.90
35425;DHT22;21537;48.226;16.400;2022-07-26T06:59:43;21.60;99.90
35425;DHT22;21537;48.226;16.400;2022-07-26T07:02:09;21.70;99.90
35425;DHT22;21537;48.226;16.400;2022-07-26T07:04:35;21.60;99.90
35425;DHT22;21537;48.226;16.400;2022-07-26T07:07:01;21.60;99.90
35425;DHT22;21537;48.226;16.400;2022-07-26T07:09:27;21.60;99.90
35425;DHT22;21537;48.226;16.400;2022-07-26T07:11:53;21.70;99.90
35425;DHT22;21537;48.226;16.400;2022-07-26T07:14:19;21.70;99.90
35425;DHT22;21537;48.226;16.400;2022-07-26T07:16:45;21.80;99.90
35425;DHT22;21537;48.226;16.400;2022-07-26T07:19:11;21.80;99.90
35425;DHT22;21537;48.226;16.400;2022-07-26T07:21:37;21.90;99.90
35425;DHT22;21537;48.226;16.400;2022-07-26T07:24:05;22.00;99.90
35425;DHT22;21537;48.226;16.400;2022-07-26T07:26:31;22.00;99.90
35425;DHT22;21537;48.226;16.400;2022-07-26T07:28:57;22.00;99.90
35425;DHT22;21537;48.226;16.400;2022-07-26T07:31:24;22.00;99.90
35425;DHT22;21537;48.226;16.400;2022-07-26T07:33:49;22.10;99.90
35425;DHT22;21537;48.226;16.400;2022-07-26T07:36:15;22.20;99.90
35425;DHT22;21537;48.226;16.400;2022-07-26T07:38:44;22.30;99.90
35425;DHT22;21537;48.226;16.400;2022-07-26T07:41:10;22.40;99.90
35425;DHT22;21537;48.226;16.400;2022-07-26T07:43:35;22.50;99.90
35425;DHT22;21537;48.226;16.400;2022-07-26T07:46:01;22.50;99.90
35425;DHT22;21537;48.226;16.400;2022-07-26T07:48:27;22.60;99.90
35425;DHT22;21537;48.226;16.400;2022-07-26T07:50:53;22.70;99.90
35425;DHT22;21537;48.226;16.400;2022-07-26T07:53:18;22.80;99.90
35425;DHT22;21537;48.226;16.400;2022-07-26T07:55:44;22.70;99.90
35425;DHT22;21537;48.226;16.400;2022-07-26T07:58:10;22.50;99.90
35425;DHT22;21537;48.226;16.400;2022-07-26T08:00:36;22.50;99.90
35425;DHT22;21537;48.226;16.400;2022-07-26T08:03:02;22.60;99.90
35425;DHT22;21537;48.226;16.400;2022-07-26T08:05:27;22.70;99.90
35425;DHT22;21537;48.226;16.400;2022-07-26T08:07:53;22.70;99.90
35425;DHT22;21537;48.226;16.400;2022-07-26T08:10:19;22.60;99.90
35425;DHT22;21537;48.226;16.400;2022-07-26T08:12:45;22.60;99.90
35425;DHT22;21537;48.226;16.400;2022-07-26T08:15:11;22.80;99.90
35425;DHT22;21537;48.226;16.400;2022-07-26T08:17:37;22.80;99.90
35425;DHT22;21537;48.226;16.400;2022-07-26T08:20:03;22.90;99.90
35425;DHT22;21537;48.226;16.400;2022-07-26T08:22:29;22.80;99.90
35425;DHT22;21537;48.226;16.400;2022-07-26T08:24:55;22.60;99.90
35425;DHT22;21537;48.226;16.400;2022-07-26T08:27:20;22.30;99.90
35425;DHT22;21537;48.226;16.400;2022-07-26T08:29:46;22.20;99.90
35425;DHT22;21537;48.226;16.400;2022-07-26T08:32:12;22.10;99.90
35425;DHT22;21537;48.226;16.400;2022-07-26T08:34:38;22.10;99.90
35425;DHT22;21537;48.226;16.400;2022-07-26T08:37:03;22.00;99.90
35425;DHT22;21537;48.226;16.400;2022-07-26T08:39:29;22.00;99.90
35425;DHT22;21537;48.226;16.400;2022-07-26T08:41:55;22.10;99.90
35425;DHT22;21537;48.226;16.400;2022-07-26T08:44:21;22.10;99.90
35425;DHT22;21537;48.226;16.400;2022-07-26T08:46:47;22.20;99.90
35425;DHT22;21537;48.226;16.400;2022-07-26T08:49:12;22.20;99.90
35425;DHT22;21537;48.226;16.400;2022-07-26T08:51:43;22.30;99.90
35425;DHT22;21537;48.226;16.400;2022-07-26T08:54:13;22.40;99.90
35425;DHT22;21537;48.226;16.400;2022-07-26T08:56:48;22.50;99.90
35425;DHT22;21537;48.226;16.400;2022-07-26T08:59:16;22.50;99.90
35425;DHT22;21537;48.226;16.400;2022-07-26T09:04:23;22.70;99.90
35425;DHT22;21537;48.226;16.400;2022-07-26T09:07:02;22.70;99.90
35425;DHT22;21537;48.226;16.400;2022-07-26T09:09:29;22.70;99.90
35425;DHT22;21537;48.226;16.400;2022-07-26T09:11:56;22.70;99.90
35425;DHT22;21537;48.226;16.400;2022-07-26T09:14:35;22.70;99.90
35425;DHT22;21537;48.226;16.400;2022-07-26T09:17:01;22.80;99.90
35425;DHT22;21537;48.226;16.400;2022-07-26T09:19:27;22.70;99.90
35425;DHT22;21537;48.226;16.400;2022-07-26T09:21:54;22.60;99.90
35425;DHT22;21537;48.226;16.400;2022-07-26T09:24:38;22.60;99.90
35425;DHT22;21537;48.226;16.400;2022-07-26T09:27:08;22.70;99.90
35425;DHT22;21537;48.226;16.400;2022-07-26T09:32:15;22.90;99.90
35425;DHT22;21537;48.226;16.400;2022-07-26T09:34:46;22.90;99.90
35425;DHT22;21537;48.226;16.400;2022-07-26T09:37:12;22.90;99.90
35425;DHT22;21537;48.226;16.400;2022-07-26T09:39:55;23.00;99.90
35425;DHT22;21537;48.226;16.400;2022-07-26T09:42:22;23.20;99.90
35425;DHT22;21537;48.226;16.400;2022-07-26T09:44:49;23.30;99.90
35425;DHT22;21537;48.226;16.400;2022-07-26T09:47:15;23.30;99.90
35425;DHT22;21537;48.226;16.400;2022-07-26T09:49:41;23.40;99.90
35425;DHT22;21537;48.226;16.400;2022-07-26T09:54:33;23.70;99.90
35425;DHT22;21537;48.226;16.400;2022-07-26T09:57:00;23.90;99.90
35425;DHT22;21537;48.226;16.400;2022-07-26T09:59:27;24.00;99.90
35425;DHT22;21537;48.226;16.400;2022-07-26T10:01:55;24.00;99.90
35425;DHT22;21537;48.226;16.400;2022-07-26T10:04:22;24.00;99.90
35425;DHT22;21537;48.226;16.400;2022-07-26T10:06:49;24.10;99.90
35425;DHT22;21537;48.226;16.400;2022-07-26T10:09:15;24.20;99.90
35425;DHT22;21537;48.226;16.400;2022-07-26T10:12:05;24.40;99.90
35425;DHT22;21537;48.226;16.400;2022-07-26T10:16:57;24.30;99.90
35425;DHT22;21537;48.226;16.400;2022-07-26T10:19:41;24.40;99.90
35425;DHT22;21537;48.226;16.400;2022-07-26T10:22:23;24.40;99.90
35425;DHT22;21537;48.226;16.400;2022-07-26T10:24:51;24.30;99.90
35425;DHT22;21537;48.226;16.400;2022-07-26T10:27:36;24.20;99.90
35425;DHT22;21537;48.226;16.400;2022-07-26T10:30:21;24.20;99.90
35425;DHT22;21537;48.226;16.400;2022-07-26T10:32:58;24.20;99.90
35425;DHT22;21537;48.226;16.400;2022-07-26T10:38:05;24.20;99.90
35425;DHT22;21537;48.226;16.400;2022-07-26T10:40:32;24.30;99.90
35425;DHT22;21537;48.226;16.400;2022-07-26T10:43:16;24.40;99.90
35425;DHT22;21537;48.226;16.400;2022-07-26T10:45:42;24.40;99.90
35425;DHT22;21537;48.226;16.400;2022-07-26T10:48:14;24.60;99.90
35425;DHT22;21537;48.226;16.400;2022-07-26T10:50:48;24.80;99.90
35425;DHT22;21537;48.226;16.400;2022-07-26T10:53:22;24.90;99.90
35425;DHT22;21537;48.226;16.400;2022-07-26T10:55:51;25.10;99.90
35425;DHT22;21537;48.226;16.400;2022-07-26T10:58:18;25.30;99.90
35425;DHT22;21537;48.226;16.400;2022-07-26T11:00:59;25.40;99.90
35425;DHT22;21537;48.226;16.400;2022-07-26T11:03:38;25.60;99.90
35425;DHT22;21537;48.226;16.400;2022-07-26T11:06:17;25.90;99.90
35425;DHT22;21537;48.226;16.400;2022-07-26T11:08:45;26.20;99.90
35425;DHT22;21537;48.226;16.400;2022-07-26T11:11:12;26.40;99.90
35425;DHT22;21537;48.226;16.400;2022-07-26T11:13:38;26.60;99.90
35425;DHT22;21537;48.226;16.400;2022-07-26T11:16:07;26.80;99.90
35425;DHT22;21537;48.226;16.400;2022-07-26T11:18:35;27.10;99.90
35425;DHT22;21537;48.226;16.400;2022-07-26T11:21:12;27.50;99.90
35425;DHT22;21537;48.226;16.400;2022-07-26T11:23:40;27.90;99.90
35425;DHT22;21537;48.226;16.400;2022-07-26T11:28:53;28.50;99.90
35425;DHT22;21537;48.226;16.400;2022-07-26T11:33:59;29.40;99.90
35425;DHT22;21537;48.226;16.400;2022-07-26T11:36:39;29.30;99.90
35425;DHT22;21537;48.226;16.400;2022-07-26T11:39:12;30.10;99.90
35425;DHT22;21537;48.226;16.400;2022-07-26T11:41:40;31.30;98.20
35425;DHT22;21537;48.226;16.400;2022-07-26T11:44:14;32.40;96.20
35425;DHT22;21537;48.226;16.400;2022-07-26T11:46:40;33.00;93.90
35425;DHT22;21537;48.226;16.400;2022-07-26T11:49:22;33.20;92.70
35425;DHT22;21537;48.226;16.400;2022-07-26T11:51:59;33.60;91.80
35425;DHT22;21537;48.226;16.400;2022-07-26T11:54:43;34.20;91.10
35425;DHT22;21537;48.226;16.400;2022-07-26T11:57:10;34.30;90.00
35425;DHT22;21537;48.226;16.400;2022-07-26T11:59:37;34.20;90.20
35425;DHT22;21537;48.226;16.400;2022-07-26T12:02:06;35.50;87.80
35425;DHT22;21537;48.226;16.400;2022-07-26T12:04:35;35.40;85.90
35425;DHT22;21537;48.226;16.400;2022-07-26T12:07:22;35.20;85.40
35425;DHT22;21537;48.226;16.400;2022-07-26T12:09:50;34.00;87.10
35425;DHT22;21537;48.226;16.400;2022-07-26T12:12:28;33.90;88.40
35425;DHT22;21537;48.226;16.400;2022-07-26T12:15:06;34.50;86.10
35425;DHT22;21537;48.226;16.400;2022-07-26T12:17:33;34.60;84.60
35425;DHT22;21537;48.226;16.400;2022-07-26T12:20:16;34.40;85.20
35425;DHT22;21537;48.226;16.400;2022-07-26T12:22:58;34.30;84.50
35425;DHT22;21537;48.226;16.400;2022-07-26T12:25:33;34.50;85.20
35425;DHT22;21537;48.226;16.400;2022-07-26T12:28:02;35.50;83.20
35425;DHT22;21537;48.226;16.400;2022-07-26T12:30:34;35.10;82.40
35425;DHT22;21537;48.226;16.400;2022-07-26T12:33:00;32.70;83.50
35425;DHT22;21537;48.226;16.400;2022-07-26T12:35:31;30.80;86.70
35425;DHT22;21537;48.226;16.400;2022-07-26T12:38:00;29.10;90.70
35425;DHT22;21537;48.226;16.400;2022-07-26T12:40:28;28.00;93.10
35425;DHT22;21537;48.226;16.400;2022-07-26T12:42:59;27.30;95.60
35425;DHT22;21537;48.226;16.400;2022-07-26T12:45:29;26.80;96.20
35425;DHT22;21537;48.226;16.400;2022-07-26T12:47:56;26.50;97.20
35425;DHT22;21537;48.226;16.400;2022-07-26T12:50:25;26.20;98.30
35425;DHT22;21537;48.226;16.400;2022-07-26T12:53:00;25.90;99.90
35425;DHT22;21537;48.226;16.400;2022-07-26T12:55:26;25.40;99.90
35425;DHT22;21537;48.226;16.400;2022-07-26T12:57:53;24.90;99.90
35425;DHT22;21537;48.226;16.400;2022-07-26T13:00:20;24.60;99.90
35425;DHT22;21537;48.226;16.400;2022-07-26T13:02:46;24.40;99.90
35425;DHT22;21537;48.226;16.400;2022-07-26T13:05:14;24.10;99.90
35425;DHT22;21537;48.226;16.400;2022-07-26T13:07:44;23.90;99.90
35425;DHT22;21537;48.226;16.400;2022-07-26T13:10:23;23.50;99.90
35425;DHT22;21537;48.226;16.400;2022-07-26T13:12:49;23.20;99.90
35425;DHT22;21537;48.226;16.400;2022-07-26T13:15:18;23.10;99.90
35425;DHT22;21537;48.226;16.400;2022-07-26T13:17:50;23.00;99.90
35425;DHT22;21537;48.226;16.400;2022-07-26T13:20:20;22.90;99.90
35425;DHT22;21537;48.226;16.400;2022-07-26T13:22:46;22.90;99.90
35425;DHT22;21537;48.226;16.400;2022-07-26T13:25:13;22.80;99.90
35425;DHT22;21537;48.226;16.400;2022-07-26T13:27:42;22.70;99.90
35425;DHT22;21537;48.226;16.400;2022-07-26T13:30:08;22.70;99.90
35425;DHT22;21537;48.226;16.400;2022-07-26T13:32:43;22.70;99.90
35425;DHT22;21537;48.226;16.400;2022-07-26T13:35:10;22.60;99.90
35425;DHT22;21537;48.226;16.400;2022-07-26T13:37:40;22.70;99.90
35425;DHT22;21537;48.226;16.400;2022-07-26T13:40:07;22.60;99.90
35425;DHT22;21537;48.226;16.400;2022-07-26T13:42:38;22.70;99.90
35425;DHT22;21537;48.226;16.400;2022-07-26T13:45:13;22.70;99.90
35425;DHT22;21537;48.226;16.400;2022-07-26T13:47:49;22.60;99.90
35425;DHT22;21537;48.226;16.400;2022-07-26T13:50:16;22.60;99.90
35425;DHT22;21537;48.226;16.400;2022-07-26T13:52:42;22.60;99.90
35425;DHT22;21537;48.226;16.400;2022-07-26T13:55:11;22.50;99.90
35425;DHT22;21537;48.226;16.400;2022-07-26T13:57:38;22.60;99.90
35425;DHT22;21537;48.226;16.400;2022-07-26T14:00:05;22.60;99.90
35425;DHT22;21537;48.226;16.400;2022-07-26T14:02:35;22.60;99.90
35425;DHT22;21537;48.226;16.400;2022-07-26T14:05:02;22.60;99.90
35425;DHT22;21537;48.226;16.400;2022-07-26T14:07:29;22.60;99.90
35425;DHT22;21537;48.226;16.400;2022-07-26T14:09:55;22.60;99.90
35425;DHT22;21537;48.226;16.400;2022-07-26T14:12:22;22.60;99.90
35425;DHT22;21537;48.226;16.400;2022-07-26T14:14:49;22.60;99.90
35425;DHT22;21537;48.226;16.400;2022-07-26T14:17:18;22.70;99.90
35425;DHT22;21537;48.226;16.400;2022-07-26T14:19:44;22.70;99.90
35425;DHT22;21537;48.226;16.400;2022-07-26T14:22:22;22.80;99.90
35425;DHT22;21537;48.226;16.400;2022-07-26T14:24:48;22.80;99.90
35425;DHT22;21537;48.226;16.400;2022-07-26T14:27:15;22.80;99.90
35425;DHT22;21537;48.226;16.400;2022-07-26T14:29:41;22.80;99.90
35425;DHT22;21537;48.226;16.400;2022-07-26T14:32:09;22.70;99.90
35425;DHT22;21537;48.226;16.400;2022-07-26T14:34:38;22.60;99.90
35425;DHT22;21537;48.226;16.400;2022-07-26T14:37:08;22.60;99.90
35425;DHT22;21537;48.226;16.400;2022-07-26T14:39:38;22.50;99.90
35425;DHT22;21537;48.226;16.400;2022-07-26T14:42:04;22.40;99.90
35425;DHT22;21537;48.226;16.400;2022-07-26T14:44:30;21.90;99.90
35425;DHT22;21537;48.226;16.400;2022-07-26T14:46:56;21.70;99.90
35425;DHT22;21537;48.226;16.400;2022-07-26T14:49:25;21.60;99.90
35425;DHT22;21537;48.226;16.400;2022-07-26T14:51:54;21.40;99.90
35425;DHT22;21537;48.226;16.400;2022-07-26T14:54:23;21.30;99.90
35425;DHT22;21537;48.226;16.400;2022-07-26T14:56:49;21.40;99.90
35425;DHT22;21537;48.226;16.400;2022-07-26T14:59:16;21.40;99.90
35425;DHT22;21537;48.226;16.400;2022-07-26T15:01:42;21.40;99.90
35425;DHT22;21537;48.226;16.400;2022-07-26T15:04:08;21.40;99.90
35425;DHT22;21537;48.226;16.400;2022-07-26T15:06:38;21.40;99.90
35425;DHT22;21537;48.226;16.400;2022-07-26T15:09:04;21.50;99.90
35425;DHT22;21537;48.226;16.400;2022-07-26T15:11:31;21.80;99.90
35425;DHT22;21537;48.226;16.400;2022-07-26T15:14:02;22.20;99.90
35425;DHT22;21537;48.226;16.400;2022-07-26T15:16:29;22.50;99.90
35425;DHT22;21537;48.226;16.400;2022-07-26T15:19:02;22.70;99.90
35425;DHT22;21537;48.226;16.400;2022-07-26T15:21:28;22.70;99.90
35425;DHT22;21537;48.226;16.400;2022-07-26T15:23:58;22.60;99.90
35425;DHT22;21537;48.226;16.400;2022-07-26T15:26:24;22.40;99.90
35425;DHT22;21537;48.226;16.400;2022-07-26T15:28:54;22.20;99.90
35425;DHT22;21537;48.226;16.400;2022-07-26T15:31:20;22.20;99.90
35425;DHT22;21537;48.226;16.400;2022-07-26T15:36:26;22.10;99.90
35425;DHT22;21537;48.226;16.400;2022-07-26T15:38:52;22.10;99.90
35425;DHT22;21537;48.226;16.400;2022-07-26T15:41:19;22.10;99.90